createdAt,value
2023-01-31T00:04:19.481Z,99356.23
2023-01-31T00:09:22.418Z,99361.48
2023-01-31T00:14:25.953Z,99367.38
2023-01-31T00:19:29.535Z,99369.09
2023-01-31T00:24:32.292Z,99369.52
2023-01-31T00:29:35.242Z,99375.45
2023-01-31T00:34:38.582Z,99380.92
2023-01-31T00:39:41.349Z,99381.91
2023-01-31T00:44:44.129Z,99391.08
2023-01-31T00:49:46.915Z,99394.88
2023-01-31T00:54:49.669Z,99396.88
2023-01-31T00:59:52.373Z,99411.81
2023-01-31T01:04:55.263Z,99413.21
2023-01-31T01:09:58.193Z,99411.32
2023-01-31T01:15:01.469Z,99423.05
2023-01-31T01:20:05.060Z,99432.94
2023-01-31T01:25:09.474Z,99432.83
2023-01-31T01:30:12.497Z,99428.98
2023-01-31T01:35:15.470Z,99428.06
2023-01-31T01:40:18.358Z,99430.67
2023-01-31T01:45:21.523Z,99435.70
2023-01-31T01:50:39.399Z,99438.67
2023-01-31T01:55:52.467Z,99441.73
2023-01-31T02:00:55.489Z,99455.42
2023-01-31T02:06:00.840Z,99462.63
2023-01-31T02:11:13.085Z,99472.80
2023-01-31T02:16:16.055Z,99486.52
2023-01-31T02:22:02.853Z,99491.36
2023-01-31T02:27:35.708Z,99507.05
2023-01-31T02:33:03.484Z,99516.00
2023-01-31T02:38:39.881Z,99527.73
2023-01-31T02:44:11.223Z,99531.34
2023-01-31T02:49:39.930Z,99529.52
2023-01-31T02:55:58.043Z,99542.48
2023-01-31T03:01:04.198Z,99550.40
2023-01-31T03:06:25.334Z,99563.73
2023-01-31T03:11:54.123Z,99578.16
2023-01-31T03:17:31.555Z,99588.58
2023-01-31T03:22:50.262Z,99594.59
2023-01-31T03:27:57.171Z,99603.06
2023-01-31T03:33:07.227Z,99613.67
2023-01-31T03:38:22.600Z,99620.73
2023-01-31T03:43:28.710Z,99630.85
2023-01-31T03:48:34.099Z,99632.77
2023-01-31T03:54:05.968Z,99628.51
2023-01-31T03:59:22.819Z,99638.21
2023-01-31T04:04:29.595Z,99639.98
2023-01-31T04:09:33.343Z,99646.58
2023-01-31T04:14:36.082Z,99655.48
2023-01-31T04:19:38.912Z,99653.72
2023-01-31T04:24:42.105Z,99657.02
2023-01-31T04:29:45.372Z,99667.81
2023-01-31T04:34:48.181Z,99675.76
2023-01-31T04:39:50.901Z,99687.58
2023-01-31T04:44:53.841Z,99688.85
2023-01-31T04:49:56.692Z,99690.69
2023-01-31T04:54:59.559Z,99691.87
2023-01-31T05:00:02.448Z,99698.27
2023-01-31T05:05:06.941Z,99700.00
2023-01-31T05:10:11.017Z,99704.67
2023-01-31T05:15:14.824Z,99715.42
2023-01-31T05:20:17.688Z,99722.80
2023-01-31T05:25:22.291Z,99738.16
2023-01-31T05:30:25.287Z,99751.32
2023-01-31T05:37:29.899Z,99764.98
2023-01-31T05:42:32.785Z,99780.37
2023-01-31T05:47:35.832Z,99787.17
2023-01-31T05:52:38.739Z,99797.70
2023-01-31T05:57:41.757Z,99799.76
2023-01-31T06:02:44.536Z,99804.79
2023-01-31T06:07:47.395Z,99810.83
2023-01-31T06:12:50.242Z,99819.48
2023-01-31T06:17:53.038Z,99842.66
2023-01-31T06:22:55.957Z,99859.41
2023-01-31T06:27:59.317Z,99869.75
2023-01-31T06:33:02.799Z,99875.52
2023-01-31T06:38:06.544Z,99888.95
2023-01-31T06:43:09.309Z,99895.30
2023-01-31T06:48:12.609Z,99902.66
2023-01-31T06:53:15.547Z,99914.81
2023-01-31T06:58:20.693Z,99915.13
2023-01-31T07:03:23.774Z,99929.60
2023-01-31T07:08:26.551Z,99933.23
2023-01-31T07:13:30.192Z,99942.81
2023-01-31T07:18:33.152Z,99959.91
2023-01-31T07:23:35.874Z,99963.70
2023-01-31T07:28:38.596Z,99972.89
2023-01-31T07:33:42.219Z,99982.27
2023-01-31T07:38:45.124Z,99985.52
2023-01-31T07:43:48.060Z,99992.13
2023-01-31T07:48:50.830Z,99988.54
2023-01-31T07:53:53.737Z,99997.17
2023-01-31T07:58:56.468Z,100005.13
2023-01-31T08:04:10.602Z,100012.57
2023-01-31T08:09:17.411Z,100010.90
2023-01-31T08:14:25.489Z,100021.48
2023-01-31T08:19:28.328Z,100028.02
2023-01-31T08:24:32.762Z,100033.98
2023-01-31T08:29:37.105Z,100043.22
2023-01-31T08:34:39.841Z,100051.96
2023-01-31T08:39:44.184Z,100067.10
2023-01-31T08:44:47.427Z,100066.33
2023-01-31T08:49:50.206Z,100071.29
2023-01-31T08:54:55.096Z,100078.79
2023-01-31T08:59:57.902Z,100073.84
2023-01-31T09:05:00.733Z,100082.23
2023-01-31T09:10:03.831Z,100086.13
2023-01-31T09:15:07.552Z,100092.90
2023-01-31T09:20:11.110Z,100097.30
2023-01-31T09:25:13.965Z,100104.14
2023-01-31T09:30:17.042Z,100103.05
2023-01-31T09:35:21.818Z,100107.43
2023-01-31T09:40:25.182Z,100112.47
2023-01-31T09:45:40.035Z,100118.63
2023-01-31T09:50:48.563Z,100124.23
2023-01-31T09:56:09.823Z,100124.92
2023-01-31T10:01:59.216Z,100121.79
2023-01-31T10:07:11.804Z,100119.31
2023-01-31T10:12:46.084Z,100119.67
2023-01-31T10:17:57.009Z,100126.23
2023-01-31T10:23:15.137Z,100126.25
2023-01-31T10:28:43.157Z,100119.35
2023-01-31T10:34:13.683Z,100125.21
2023-01-31T10:39:36.443Z,100125.33
2023-01-31T10:44:57.073Z,100127.10
2023-01-31T10:50:00.508Z,100125.10
2023-01-31T10:55:30.447Z,100123.27
2023-01-31T11:00:33.349Z,100122.80
2023-01-31T11:05:36.176Z,100122.66
2023-01-31T11:10:51.071Z,100128.32
2023-01-31T11:15:53.999Z,100127.80
2023-01-31T11:20:58.848Z,100133.73
2023-01-31T11:26:01.997Z,100133.50
2023-01-31T11:31:17.797Z,100133.47
2023-01-31T11:36:26.771Z,100122.81
2023-01-31T11:41:31.209Z,100127.31
2023-01-31T11:46:48.997Z,100126.25
2023-01-31T11:51:51.878Z,100129.14
2023-01-31T11:56:56.724Z,100130.77
2023-01-31T12:02:02.099Z,100128.16
2023-01-31T12:07:20.518Z,100124.94
2023-01-31T12:12:34.169Z,100121.06
2023-01-31T12:17:47.604Z,100102.90
2023-01-31T12:23:07.308Z,100101.25
2023-01-31T12:28:32.142Z,100090.05
2023-01-31T12:33:55.202Z,100084.19
2023-01-31T12:39:27.929Z,100083.83
2023-01-31T12:45:10.879Z,100080.81
2023-01-31T12:50:28.832Z,100077.98
2023-01-31T12:55:40.874Z,100077.34
2023-01-31T13:01:06.700Z,100078.48
2023-01-31T13:06:20.114Z,100082.25
2023-01-31T13:11:32.502Z,100081.46
2023-01-31T13:16:38.759Z,100073.95
2023-01-31T13:21:47.554Z,100078.38
2023-01-31T13:27:02.856Z,100069.29
2023-01-31T13:32:34.472Z,100070.59
2023-01-31T13:37:38.885Z,100059.83
2023-01-31T13:42:41.772Z,100058.55
2023-01-31T13:47:51.717Z,100056.88
2023-01-31T13:52:56.939Z,100055.89
2023-01-31T13:58:15.991Z,100069.05
2023-01-31T14:03:20.361Z,100075.01
2023-01-31T14:09:32.546Z,100078.90
2023-01-31T14:14:42.470Z,100087.09
2023-01-31T14:19:49.063Z,100085.73
2023-01-31T14:25:00.357Z,100081.93
2023-01-31T14:30:04.933Z,100072.66
2023-01-31T14:35:14.084Z,100068.45
2023-01-31T14:41:05.527Z,100071.11
2023-01-31T14:46:36.530Z,100071.45
2023-01-31T14:51:54.394Z,100076.85
2023-01-31T14:57:15.752Z,100076.97
2023-01-31T15:02:38.135Z,100071.71
2023-01-31T15:08:15.900Z,100068.73
2023-01-31T15:13:50.140Z,100066.73
2023-01-31T15:19:02.343Z,100058.63
2023-01-31T15:24:05.995Z,100062.30
2023-01-31T15:29:08.815Z,100059.81
2023-01-31T15:34:19.179Z,100062.02
2023-01-31T15:39:29.426Z,100055.54
2023-01-31T15:44:32.202Z,100058.48
2023-01-31T15:49:41.876Z,100059.92
2023-01-31T15:54:59.189Z,100052.02
2023-01-31T16:00:03.182Z,100049.20
2023-01-31T16:05:07.473Z,100047.20
2023-01-31T16:10:12.218Z,100050.73
2023-01-31T16:15:40.879Z,100054.32
2023-01-31T16:20:54.401Z,100058.55
2023-01-31T16:26:10.631Z,100061.19
2023-01-31T16:31:18.478Z,100057.27
2023-01-31T16:36:50.745Z,100057.46
2023-01-31T16:41:56.677Z,100051.81
2023-01-31T16:47:00.102Z,100045.46
2023-01-31T16:52:25.181Z,100039.70
2023-01-31T16:57:38.169Z,100031.23
2023-01-31T17:02:41.917Z,100027.88
2023-01-31T17:07:45.570Z,100023.52
2023-01-31T17:12:48.413Z,100016.20
2023-01-31T17:17:51.163Z,99998.95
2023-01-31T17:23:02.225Z,99995.74
2023-01-31T17:28:06.071Z,99991.18
2023-01-31T17:33:17.655Z,99987.43
2023-01-31T17:38:21.149Z,99984.82
2023-01-31T17:43:25.359Z,99976.38
2023-01-31T17:48:28.147Z,99971.01
2023-01-31T17:53:37.203Z,99955.85
2023-01-31T17:58:48.553Z,99950.29
2023-01-31T18:03:53.302Z,99937.44
2023-01-31T18:08:56.638Z,99929.42
2023-01-31T18:13:59.453Z,99914.66
2023-01-31T18:19:02.171Z,99910.02
2023-01-31T18:24:10.324Z,99899.45
2023-01-31T18:29:19.443Z,99893.94
2023-01-31T18:34:22.254Z,99886.64
2023-01-31T18:39:25.099Z,99876.27
2023-01-31T18:44:29.283Z,99867.13
2023-01-31T18:49:32.577Z,99855.24
2023-01-31T18:54:37.565Z,99845.20
2023-01-31T18:59:40.392Z,99831.95
2023-01-31T19:04:43.426Z,99829.51
2023-01-31T19:09:49.746Z,99827.14
2023-01-31T19:14:56.326Z,99820.08
2023-01-31T19:20:02.438Z,99816.85
2023-01-31T19:25:09.160Z,99807.72
2023-01-31T19:30:13.200Z,99803.21
2023-01-31T19:35:16.046Z,99795.50
2023-01-31T19:40:19.310Z,99781.40
2023-01-31T19:45:22.757Z,99768.92
2023-01-31T19:50:26.140Z,99759.21
2023-01-31T19:55:29.005Z,99742.52
2023-01-31T20:00:31.785Z,99733.39
2023-01-31T20:05:34.540Z,99724.25
2023-01-31T20:10:37.730Z,99705.09
2023-01-31T20:15:40.441Z,99691.14
2023-01-31T20:20:44.684Z,99684.08
2023-01-31T20:25:51.122Z,99675.27
2023-01-31T20:30:54.196Z,99661.09
2023-01-31T20:35:57.319Z,99652.12
2023-01-31T20:41:00.187Z,99645.58
2023-01-31T20:46:06.043Z,99630.77
2023-01-31T20:51:08.987Z,99626.71
2023-01-31T20:56:13.249Z,99620.58
2023-01-31T21:01:16.157Z,99611.64
2023-01-31T21:06:22.242Z,99600.39
2023-01-31T21:11:25.209Z,99592.12
2023-01-31T21:16:27.963Z,99585.16
2023-01-31T21:21:30.891Z,99574.89
2023-01-31T21:26:33.850Z,99563.74
2023-01-31T21:31:36.765Z,99555.05
2023-01-31T21:36:40.359Z,99543.85
2023-01-31T21:42:01.592Z,99534.63
2023-01-31T21:47:04.523Z,99519.68
2023-01-31T21:52:07.820Z,99510.17
2023-01-31T21:57:10.764Z,99501.48
2023-01-31T22:02:13.702Z,99495.02
2023-01-31T22:07:16.619Z,99485.73
2023-01-31T22:12:19.567Z,99477.94
2023-01-31T22:17:22.281Z,99472.33
2023-01-31T22:22:25.218Z,99465.10
2023-01-31T22:27:28.361Z,99456.80
2023-01-31T22:32:32.920Z,99450.45
2023-01-31T22:37:35.635Z,99442.41
2023-01-31T22:42:38.388Z,99438.35
2023-01-31T22:47:41.216Z,99435.13
2023-01-31T22:52:44.038Z,99426.57
2023-01-31T22:57:47.932Z,99418.80
2023-01-31T23:02:50.875Z,99407.08
2023-01-31T23:07:55.794Z,99399.14
2023-01-31T23:12:58.503Z,99396.05
2023-01-31T23:18:02.425Z,99389.13
2023-01-31T23:23:05.192Z,99388.81
2023-01-31T23:28:08.198Z,99375.13
2023-01-31T23:33:11.010Z,99368.65
2023-01-31T23:38:13.780Z,99367.86
2023-01-31T23:43:16.550Z,99356.78
2023-01-31T23:48:19.333Z,99351.25
2023-01-31T23:53:23.046Z,99353.33
2023-01-31T23:58:26.293Z,99346.15
